Time;durP1;ratioP1;P1;durP2;ratioP2;P2;SDS_P1;SDS_P2;PMS_P1;PMS_P2;Temp;Humidity;BMP_temperature;BMP_pressure;BME280_temperature;BME280_humidity;BME280_pressure;Samples;Min_cycle;Max_cycle;Signal;HPM_P1;HPM_P2
2024/01/08 00:01:39;;;;;;;1.42;0.65;;;0.30;99.90;;;;;;4870617;29;20018;-67
2024/01/08 00:04:08;;;;;;;2.13;0.63;;;0.40;99.90;;;;;;4861489;29;20034;-67
2024/01/08 00:06:34;;;;;;;0.32;0.32;;;0.30;99.90;;;;;;4875627;29;20022;-67
2024/01/08 00:09:00;;;;;;;1.35;0.80;;;0.30;99.90;;;;;;4854957;29;20065;-67
2024/01/08 00:11:26;;;;;;;1.75;0.85;;;0.40;99.90;;;;;;4872025;29;20079;-68
2024/01/08 00:13:52;;;;;;;3.65;1.25;;;0.30;99.90;;;;;;4872817;29;20513;-68
2024/01/08 00:16:20;;;;;;;0.80;0.47;;;0.40;99.90;;;;;;4859518;29;20029;-68
2024/01/08 00:18:45;;;;;;;7.18;1.50;;;0.40;99.90;;;;;;4856610;29;20494;-67
2024/01/08 00:21:11;;;;;;;0.77;0.52;;;0.30;99.90;;;;;;4861557;29;20059;-67
2024/01/08 00:23:37;;;;;;;3.05;0.95;;;0.40;99.90;;;;;;4875261;29;20427;-67
2024/01/08 00:26:03;;;;;;;0.50;0.50;;;0.30;99.90;;;;;;4861537;29;20037;-68
2024/01/08 00:28:29;;;;;;;1.30;0.52;;;0.40;99.90;;;;;;4874369;29;20041;-68
2024/01/08 00:30:55;;;;;;;0.60;0.57;;;0.30;99.90;;;;;;4854891;29;20060;-68
2024/01/08 00:33:21;;;;;;;0.93;0.73;;;0.30;99.90;;;;;;4867988;29;20129;-68
2024/01/08 00:35:46;;;;;;;0.55;0.55;;;0.30;99.90;;;;;;4861208;29;20653;-67
2024/01/08 00:38:12;;;;;;;0.40;0.28;;;0.30;99.90;;;;;;4860506;29;20116;-67
2024/01/08 00:40:38;;;;;;;0.57;0.50;;;0.40;99.90;;;;;;4875475;29;20101;-68
2024/01/08 00:43:04;;;;;;;0.82;0.68;;;0.40;99.90;;;;;;4856848;29;20026;-68
2024/01/08 00:45:30;;;;;;;1.20;0.70;;;0.40;99.90;;;;;;4869248;29;20513;-68
2024/01/08 00:47:56;;;;;;;3.13;0.90;;;0.40;99.90;;;;;;4859652;29;20829;-69
2024/01/08 00:50:22;;;;;;;1.25;0.80;;;0.40;99.90;;;;;;4859856;29;20093;-68
2024/01/08 00:52:48;;;;;;;1.80;0.88;;;0.50;99.90;;;;;;4859350;29;20054;-68
2024/01/08 00:55:14;;;;;;;1.25;0.80;;;0.50;99.90;;;;;;4870131;29;20034;-68
2024/01/08 00:57:40;;;;;;;0.52;0.52;;;0.40;99.90;;;;;;4861282;29;20101;-69
2024/01/08 01:00:09;;;;;;;0.28;0.28;;;0.50;99.90;;;;;;4870410;29;20102;-68
2024/01/08 01:02:35;;;;;;;2.38;1.30;;;0.50;99.90;;;;;;4872038;29;20133;-68
2024/01/08 01:05:02;;;;;;;1.08;0.77;;;0.50;99.90;;;;;;4859795;29;20047;-68
2024/01/08 01:07:29;;;;;;;3.97;1.20;;;0.50;99.90;;;;;;4856517;29;20120;-68
2024/01/08 01:09:55;;;;;;;1.20;1.10;;;0.50;99.90;;;;;;4874868;29;20459;-67
2024/01/08 01:12:21;;;;;;;2.63;0.90;;;0.50;99.90;;;;;;4858609;29;20047;-68
2024/01/08 01:14:47;;;;;;;5.53;0.65;;;0.50;99.90;;;;;;4860852;29;20514;-68
2024/01/08 01:17:13;;;;;;;2.00;0.65;;;0.50;99.90;;;;;;4859209;29;20459;-68
2024/01/08 01:19:39;;;;;;;0.85;0.85;;;0.50;99.90;;;;;;4859558;29;20584;-68
2024/01/08 01:22:05;;;;;;;1.48;0.70;;;0.50;99.90;;;;;;4856998;29;20044;-68
2024/01/08 01:24:31;;;;;;;0.55;0.40;;;0.50;99.90;;;;;;4874668;29;20374;-69
2024/01/08 01:26:57;;;;;;;1.27;1.02;;;0.50;99.90;;;;;;4869800;29;20034;-69
2024/01/08 01:29:23;;;;;;;0.40;0.40;;;0.50;99.90;;;;;;4860059;29;20026;-69
2024/01/08 01:31:48;;;;;;;0.85;0.60;;;0.50;99.90;;;;;;4859998;29;20431;-68
2024/01/08 01:34:17;;;;;;;0.32;0.32;;;0.50;99.90;;;;;;4874229;29;20394;-68
2024/01/08 01:36:44;;;;;;;1.42;0.73;;;0.50;99.90;;;;;;4843589;29;20498;-68
2024/01/08 01:39:10;;;;;;;2.65;0.82;;;0.50;99.90;;;;;;4874299;29;20042;-68
2024/01/08 01:41:36;;;;;;;0.35;0.35;;;0.50;99.90;;;;;;4871217;29;20120;-68
2024/01/08 01:44:02;;;;;;;0.65;0.47;;;0.50;99.90;;;;;;4857418;29;20022;-68
2024/01/08 01:46:41;;;;;;;0.10;0.10;;;0.50;99.90;;;;;;4859437;29;20036;-68
2024/01/08 01:49:11;;;;;;;0.22;0.22;;;0.40;99.90;;;;;;4860035;29;20036;-68
2024/01/08 01:51:42;;;;;;;0.77;0.68;;;0.50;99.90;;;;;;4867404;29;20459;-68
2024/01/08 01:54:11;;;;;;;0.50;0.40;;;0.50;99.90;;;;;;4857595;29;20040;-68
2024/01/08 01:56:37;;;;;;;0.57;0.40;;;0.50;99.90;;;;;;4872381;29;20061;-68
2024/01/08 01:59:05;;;;;;;0.32;0.32;;;0.50;99.90;;;;;;4873892;29;20056;-68
2024/01/08 02:01:33;;;;;;;0.98;0.70;;;0.50;99.90;;;;;;4869596;29;20060;-68
2024/01/08 02:04:01;;;;;;;0.65;0.43;;;0.50;99.90;;;;;;4867059;29;20048;-68
2024/01/08 02:06:28;;;;;;;0.45;0.45;;;0.60;99.90;;;;;;4873077;29;20041;-68
2024/01/08 02:08:55;;;;;;;0.20;0.20;;;0.50;99.90;;;;;;4855907;29;20034;-68
2024/01/08 02:11:21;;;;;;;1.02;0.40;;;0.50;99.90;;;;;;4873505;29;20045;-68
2024/01/08 02:13:48;;;;;;;1.02;0.60;;;0.50;99.90;;;;;;4856120;29;20033;-68
2024/01/08 02:16:15;;;;;;;1.42;0.50;;;0.50;99.90;;;;;;4871184;29;20025;-68
2024/01/08 02:18:41;;;;;;;0.30;0.30;;;0.50;99.90;;;;;;4873216;29;20696;-68
2024/01/08 02:21:06;;;;;;;0.43;0.22;;;0.60;99.90;;;;;;4859101;29;20117;-68
2024/01/08 02:23:33;;;;;;;0.65;0.30;;;0.60;99.90;;;;;;4857917;29;20082;-68
2024/01/08 02:25:59;;;;;;;0.28;0.25;;;0.60;99.90;;;;;;4859367;29;20081;-68
2024/01/08 02:28:25;;;;;;;0.20;0.20;;;0.50;99.90;;;;;;4870762;29;20502;-68
2024/01/08 02:30:51;;;;;;;0.73;0.57;;;0.60;99.90;;;;;;4858041;29;20035;-68
2024/01/08 02:33:19;;;;;;;2.60;1.20;;;0.60;99.90;;;;;;4858750;29;20025;-68
2024/01/08 02:35:44;;;;;;;0.90;0.88;;;0.60;99.90;;;;;;4858742;29;20037;-68
2024/01/08 02:38:10;;;;;;;0.65;0.57;;;0.50;99.90;;;;;;4856937;29;20493;-68
2024/01/08 02:40:36;;;;;;;1.40;0.93;;;0.60;99.90;;;;;;4871498;29;20104;-68
2024/01/08 02:43:02;;;;;;;0.68;0.60;;;0.60;99.90;;;;;;4858370;29;20042;-68
2024/01/08 02:45:28;;;;;;;0.80;0.65;;;0.60;99.90;;;;;;4873181;29;20040;-68
2024/01/08 02:47:54;;;;;;;0.45;0.45;;;0.60;99.90;;;;;;4858815;29;20037;-68
2024/01/08 02:50:19;;;;;;;0.40;0.40;;;0.60;99.90;;;;;;4859159;29;20405;-68
2024/01/08 02:52:45;;;;;;;1.05;0.73;;;0.60;99.90;;;;;;4855432;29;20451;-68
2024/01/08 02:55:11;;;;;;;0.35;0.35;;;0.60;99.90;;;;;;4858915;29;20037;-68
2024/01/08 02:57:37;;;;;;;0.60;0.52;;;0.50;99.90;;;;;;4873029;29;20058;-68
2024/01/08 03:00:05;;;;;;;1.17;0.70;;;0.60;99.90;;;;;;4857814;29;20037;-68
2024/01/08 03:02:31;;;;;;;1.08;0.73;;;0.60;99.90;;;;;;4870607;29;20106;-68
2024/01/08 03:04:57;;;;;;;0.65;0.60;;;0.60;99.90;;;;;;4873383;29;20028;-68
2024/01/08 03:07:23;;;;;;;0.38;0.38;;;0.70;99.90;;;;;;4857892;29;20045;-68
2024/01/08 03:09:49;;;;;;;0.55;0.50;;;0.70;99.90;;;;;;4872859;29;20033;-68
2024/01/08 03:12:15;;;;;;;1.13;0.93;;;0.70;99.90;;;;;;4871063;29;20033;-68
2024/01/08 03:14:43;;;;;;;1.05;0.50;;;0.60;99.90;;;;;;4868692;29;20038;-67
2024/01/08 03:17:09;;;;;;;2.30;0.93;;;0.70;99.90;;;;;;4871416;29;20132;-68
2024/01/08 03:19:47;;;;;;;0.80;0.68;;;0.70;99.90;;;;;;4871415;29;20053;-68
2024/01/08 03:22:13;;;;;;;0.77;0.77;;;0.60;99.90;;;;;;4869951;29;20177;-68
2024/01/08 03:24:39;;;;;;;0.68;0.35;;;0.60;99.90;;;;;;4870406;29;20074;-68
2024/01/08 03:27:04;;;;;;;0.70;0.40;;;0.70;99.90;;;;;;4858156;29;20054;-68
2024/01/08 03:29:30;;;;;;;0.60;0.60;;;0.70;99.90;;;;;;4872666;29;20033;-68
2024/01/08 03:31:56;;;;;;;0.63;0.60;;;0.60;99.90;;;;;;4871902;29;20040;-68
2024/01/08 03:34:22;;;;;;;0.50;0.40;;;0.70;99.90;;;;;;4858694;29;20040;-69
2024/01/08 03:36:48;;;;;;;1.40;0.70;;;0.60;99.90;;;;;;4858631;29;20076;-68
2024/01/08 03:39:15;;;;;;;0.63;0.40;;;0.60;99.90;;;;;;4872794;29;20037;-68
2024/01/08 03:41:42;;;;;;;0.98;0.40;;;0.60;99.90;;;;;;4869424;29;20821;-68
2024/01/08 03:44:08;;;;;;;1.15;1.00;;;0.70;99.90;;;;;;4858457;29;20036;-68
2024/01/08 03:46:34;;;;;;;0.57;0.55;;;0.60;99.90;;;;;;4858076;29;20040;-68
2024/01/08 03:49:02;;;;;;;1.40;0.57;;;0.60;99.90;;;;;;4872944;29;20044;-68
2024/01/08 03:51:27;;;;;;;0.47;0.45;;;0.60;99.90;;;;;;4858248;29;20555;-68
2024/01/08 03:53:53;;;;;;;1.10;0.60;;;0.60;99.90;;;;;;4872544;29;20038;-68
2024/01/08 03:56:19;;;;;;;0.57;0.52;;;0.60;99.90;;;;;;4857876;29;20033;-68
2024/01/08 03:58:45;;;;;;;0.60;0.50;;;0.60;99.90;;;;;;4858644;29;20048;-68
2024/01/08 04:01:11;;;;;;;1.48;0.98;;;0.60;99.90;;;;;;4870997;29;20038;-68
2024/01/08 04:03:38;;;;;;;0.50;0.50;;;0.60;99.90;;;;;;4856331;29;20163;-68
2024/01/08 04:06:03;;;;;;;2.05;0.63;;;0.50;99.90;;;;;;4872195;29;20112;-68
2024/01/08 04:08:29;;;;;;;1.15;0.65;;;0.60;99.90;;;;;;4858102;29;20111;-68
2024/01/08 04:10:55;;;;;;;0.32;0.32;;;0.60;99.90;;;;;;4861043;29;20096;-68
2024/01/08 04:13:21;;;;;;;1.02;0.73;;;0.60;99.90;;;;;;4861047;29;20033;-68
2024/01/08 04:15:46;;;;;;;0.30;0.30;;;0.60;99.90;;;;;;4860600;29;20036;-68
2024/01/08 04:18:13;;;;;;;0.60;0.32;;;0.60;99.90;;;;;;4861428;29;20088;-68
2024/01/08 04:20:39;;;;;;;0.57;0.47;;;0.60;99.90;;;;;;4861239;29;20045;-68
2024/01/08 04:23:05;;;;;;;0.32;0.32;;;0.60;99.90;;;;;;4872251;29;20085;-68
2024/01/08 04:25:31;;;;;;;0.80;0.75;;;0.60;99.90;;;;;;4873385;29;20490;-68
2024/01/08 04:27:57;;;;;;;0.52;0.50;;;0.60;99.90;;;;;;4874681;29;20033;-68
2024/01/08 04:30:23;;;;;;;0.32;0.32;;;0.60;99.90;;;;;;4861102;29;20237;-68
2024/01/08 04:32:50;;;;;;;1.00;0.68;;;0.70;99.90;;;;;;4860596;29;20145;-68
2024/01/08 04:35:16;;;;;;;1.13;0.60;;;0.70;99.90;;;;;;4861114;29;20455;-69
2024/01/08 04:37:42;;;;;;;0.45;0.40;;;0.60;99.90;;;;;;4860874;29;20036;-68
2024/01/08 04:40:10;;;;;;;1.35;0.65;;;0.60;99.90;;;;;;4860910;29;20025;-68
2024/01/08 04:42:36;;;;;;;0.50;0.50;;;0.60;99.90;;;;;;4874357;29;20041;-68
2024/01/08 04:45:02;;;;;;;0.52;0.52;;;0.70;99.90;;;;;;4875097;29;20038;-67
2024/01/08 04:47:28;;;;;;;1.42;0.82;;;0.70;99.90;;;;;;4870892;29;20038;-68
2024/01/08 04:49:53;;;;;;;0.75;0.63;;;0.70;99.90;;;;;;4875150;29;20049;-68
2024/01/08 04:52:19;;;;;;;4.03;1.17;;;0.70;99.90;;;;;;4860064;29;20089;-68
2024/01/08 04:54:45;;;;;;;2.15;1.10;;;0.60;99.90;;;;;;4860529;29;20045;-68
2024/01/08 04:57:11;;;;;;;1.00;0.50;;;0.70;99.90;;;;;;4874472;29;20041;-68
2024/01/08 04:59:43;;;;;;;0.80;0.73;;;0.60;99.90;;;;;;4873926;29;20026;-68
2024/01/08 05:02:10;;;;;;;0.50;0.30;;;0.60;99.90;;;;;;4873783;29;20087;-68
2024/01/08 05:04:36;;;;;;;0.98;0.30;;;0.50;99.90;;;;;;4874719;29;20037;-68
2024/01/08 05:07:02;;;;;;;0.65;0.47;;;0.60;99.90;;;;;;4874400;29;20479;-68
2024/01/08 05:09:29;;;;;;;0.70;0.70;;;0.60;99.90;;;;;;4860505;29;20064;-68
2024/01/08 05:11:55;;;;;;;0.50;0.40;;;0.50;99.90;;;;;;4859830;29;20026;-68
2024/01/08 05:14:21;;;;;;;0.65;0.50;;;0.50;99.90;;;;;;4872790;29;20036;-68
2024/01/08 05:16:47;;;;;;;0.82;0.82;;;0.60;99.90;;;;;;4859660;29;20049;-68
2024/01/08 05:19:13;;;;;;;1.40;0.35;;;0.50;99.90;;;;;;4858982;29;20030;-68
2024/01/08 05:21:38;;;;;;;5.65;0.82;;;0.50;99.90;;;;;;4872339;29;20045;-68
2024/01/08 05:24:05;;;;;;;5.18;1.08;;;0.50;99.90;;;;;;4860136;29;20054;-68
2024/01/08 05:26:31;;;;;;;0.40;0.40;;;0.60;99.90;;;;;;4871644;29;20029;-68
2024/01/08 05:28:57;;;;;;;1.38;0.77;;;0.70;99.90;;;;;;4872744;29;20048;-67
2024/01/08 05:31:23;;;;;;;1.23;0.80;;;0.70;99.90;;;;;;4859605;29;20037;-68
2024/01/08 05:33:49;;;;;;;2.50;0.88;;;1.00;99.90;;;;;;4858900;29;20069;-68
2024/01/08 05:36:15;;;;;;;6.60;1.05;;;0.80;99.90;;;;;;4859725;29;20088;-68
2024/01/08 05:38:41;;;;;;;1.75;1.23;;;0.80;99.90;;;;;;4859893;29;20032;-68
2024/01/08 05:41:07;;;;;;;1.00;0.82;;;0.90;99.90;;;;;;4871783;29;20230;-68
2024/01/08 05:43:37;;;;;;;3.17;1.67;;;1.00;99.90;;;;;;4872978;29;20112;-68
2024/01/08 05:46:05;;;;;;;4.15;0.77;;;1.00;99.90;;;;;;4875386;29;20033;-68
2024/01/08 05:48:37;;;;;;;1.85;1.05;;;1.00;99.90;;;;;;4856669;29;20029;-68
2024/01/08 05:51:07;;;;;;;0.73;0.68;;;0.80;99.90;;;;;;4858125;29;20592;-68
2024/01/08 05:53:34;;;;;;;1.40;0.93;;;0.60;99.90;;;;;;4858940;29;20048;-68
2024/01/08 05:55:59;;;;;;;0.50;0.40;;;0.60;99.90;;;;;;4857030;29;20030;-68
2024/01/08 05:58:25;;;;;;;1.38;0.68;;;0.60;99.90;;;;;;4857994;29;20502;-68
2024/01/08 06:00:54;;;;;;;0.52;0.52;;;0.60;99.90;;;;;;4858893;29;20037;-69
2024/01/08 06:03:22;;;;;;;0.93;0.80;;;0.60;99.90;;;;;;4873195;29;20166;-69
2024/01/08 06:05:48;;;;;;;0.77;0.70;;;0.70;99.90;;;;;;4860959;29;20041;-68
2024/01/08 06:08:14;;;;;;;1.60;0.93;;;0.60;99.90;;;;;;4859095;29;20037;-68
2024/01/08 06:10:40;;;;;;;0.30;0.30;;;0.60;99.90;;;;;;4871172;29;20034;-68
2024/01/08 06:13:09;;;;;;;0.45;0.45;;;0.60;99.90;;;;;;4855897;29;20112;-68
2024/01/08 06:15:35;;;;;;;0.90;0.60;;;0.60;99.90;;;;;;4873578;29;20043;-69
2024/01/08 06:18:03;;;;;;;1.92;0.90;;;0.60;99.90;;;;;;4872068;29;20025;-68
2024/01/08 06:20:29;;;;;;;1.30;0.85;;;0.60;99.90;;;;;;4856673;29;20516;-68
2024/01/08 06:22:54;;;;;;;1.00;0.50;;;0.60;99.90;;;;;;4871809;29;20029;-69
2024/01/08 06:25:20;;;;;;;0.60;0.40;;;0.60;99.90;;;;;;4864454;29;20037;-68
2024/01/08 06:27:46;;;;;;;0.73;0.63;;;0.60;99.90;;;;;;4875932;29;20033;-68
2024/01/08 06:30:12;;;;;;;1.65;0.82;;;0.60;99.90;;;;;;4860328;29;20038;-68
2024/01/08 06:32:38;;;;;;;1.58;0.57;;;0.60;99.90;;;;;;4859986;29;20094;-68
2024/01/08 06:35:04;;;;;;;1.30;0.95;;;0.60;99.90;;;;;;4859200;29;20038;-68
2024/01/08 06:37:30;;;;;;;0.30;0.30;;;0.60;99.90;;;;;;4860376;29;20037;-68
2024/01/08 06:39:56;;;;;;;0.85;0.65;;;0.70;99.90;;;;;;4859912;29;20487;-70
2024/01/08 06:42:21;;;;;;;1.23;0.90;;;0.60;99.90;;;;;;4860791;29;20372;-69
2024/01/08 06:44:47;;;;;;;1.70;1.15;;;0.60;99.90;;;;;;4858601;29;20063;-69
2024/01/08 06:47:14;;;;;;;0.70;0.50;;;0.60;99.90;;;;;;4866311;29;20041;-69
2024/01/08 06:49:39;;;;;;;1.10;1.02;;;0.60;99.90;;;;;;4858686;29;20026;-69
2024/01/08 06:52:05;;;;;;;1.35;0.90;;;0.60;99.90;;;;;;4858337;29;20061;-68
2024/01/08 06:54:31;;;;;;;0.55;0.55;;;0.60;99.90;;;;;;4873008;29;20490;-68
2024/01/08 06:56:58;;;;;;;1.55;1.00;;;0.60;99.90;;;;;;4858569;29;20025;-68
2024/01/08 06:59:24;;;;;;;1.98;0.57;;;0.50;99.90;;;;;;4873082;29;20041;-68
2024/01/08 07:01:51;;;;;;;1.40;1.10;;;0.50;99.90;;;;;;4869583;29;20026;-68
2024/01/08 07:04:18;;;;;;;0.43;0.43;;;0.50;99.90;;;;;;4856099;29;20041;-68
2024/01/08 07:06:44;;;;;;;2.13;0.88;;;0.50;99.90;;;;;;4860610;29;20064;-68
2024/01/08 07:09:10;;;;;;;2.03;1.20;;;0.50;99.90;;;;;;4863443;29;20042;-68
2024/01/08 07:11:36;;;;;;;1.95;0.75;;;0.50;99.90;;;;;;4860867;29;20105;-68
2024/01/08 07:14:02;;;;;;;0.35;0.35;;;0.50;99.90;;;;;;4864318;29;20474;-69
2024/01/08 07:16:28;;;;;;;2.88;1.33;;;0.50;99.90;;;;;;4873852;29;20037;-70
2024/01/08 07:18:54;;;;;;;0.70;0.70;;;0.50;99.90;;;;;;4878808;29;20029;-69
2024/01/08 07:21:20;;;;;;;0.85;0.70;;;0.60;99.90;;;;;;4858358;29;20046;-69
2024/01/08 07:23:48;;;;;;;1.27;1.05;;;0.50;99.90;;;;;;4854915;29;20054;-67
2024/01/08 07:26:14;;;;;;;1.75;1.10;;;0.50;99.90;;;;;;4855620;29;20045;-67
2024/01/08 07:28:46;;;;;;;0.93;0.63;;;0.50;99.90;;;;;;4876896;29;20034;-68
2024/01/08 07:31:15;;;;;;;2.10;1.45;;;0.40;99.90;;;;;;4873136;29;20041;-67
2024/01/08 07:33:42;;;;;;;1.73;0.50;;;0.50;99.90;;;;;;4865650;29;20029;-67
2024/01/08 07:36:08;;;;;;;0.85;0.52;;;0.50;99.90;;;;;;4854475;29;20056;-67
2024/01/08 07:38:34;;;;;;;1.05;0.75;;;0.50;99.90;;;;;;4878626;29;20554;-67
2024/01/08 07:41:00;;;;;;;1.95;1.00;;;0.50;99.90;;;;;;4855904;29;20045;-68
2024/01/08 07:43:27;;;;;;;2.70;0.88;;;0.50;99.90;;;;;;4884643;29;20090;-67
2024/01/08 07:45:53;;;;;;;1.75;0.88;;;0.50;99.90;;;;;;4863201;29;20049;-68
2024/01/08 07:48:19;;;;;;;0.63;0.55;;;0.50;99.90;;;;;;4868692;29;20037;-68
2024/01/08 07:50:48;;;;;;;2.03;1.48;;;0.50;99.90;;;;;;4861978;29;20080;-69
2024/01/08 07:53:16;;;;;;;2.65;1.08;;;0.50;99.90;;;;;;4861369;29;20117;-69
2024/01/08 07:55:42;;;;;;;1.95;1.05;;;0.50;99.90;;;;;;4859210;29;20149;-69
2024/01/08 07:58:09;;;;;;;1.70;1.08;;;0.40;99.90;;;;;;4877448;29;20033;-67
2024/01/08 08:00:35;;;;;;;1.98;0.85;;;0.50;99.90;;;;;;4860867;29;20077;-64
2024/01/08 08:03:01;;;;;;;0.82;0.57;;;0.60;99.90;;;;;;4881088;29;20061;-68
2024/01/08 08:05:27;;;;;;;1.85;1.15;;;0.60;99.90;;;;;;4860619;29;20037;-67
2024/01/08 08:07:52;;;;;;;0.98;0.80;;;0.50;99.90;;;;;;4866972;29;20067;-67
2024/01/08 08:10:18;;;;;;;0.95;0.70;;;0.50;99.90;;;;;;4860919;29;20060;-67
2024/01/08 08:12:44;;;;;;;1.08;0.57;;;0.60;99.90;;;;;;4859170;29;20148;-73
2024/01/08 08:15:13;;;;;;;0.80;0.63;;;0.40;99.90;;;;;;4862400;29;20034;-72
2024/01/08 08:17:41;;;;;;;3.85;1.35;;;0.50;99.90;;;;;;4859111;29;20030;-72
2024/01/08 08:20:09;;;;;;;0.90;0.75;;;0.50;99.90;;;;;;4862100;29;20029;-71
2024/01/08 08:22:36;;;;;;;1.67;1.52;;;0.50;99.90;;;;;;4864476;29;20037;-72
2024/01/08 08:25:02;;;;;;;4.38;0.93;;;0.50;99.90;;;;;;4861191;29;20165;-70
2024/01/08 08:27:28;;;;;;;1.23;0.80;;;0.50;99.90;;;;;;4857254;29;20096;-70
2024/01/08 08:29:55;;;;;;;1.85;1.05;;;0.60;99.90;;;;;;4861968;29;20565;-70
2024/01/08 08:32:22;;;;;;;1.27;0.95;;;0.50;99.90;;;;;;4862887;29;20533;-70
2024/01/08 08:34:48;;;;;;;1.13;0.80;;;0.40;99.90;;;;;;4860522;29;20101;-71
2024/01/08 08:37:14;;;;;;;2.67;1.25;;;0.50;99.90;;;;;;4862847;29;20116;-71
2024/01/08 08:39:40;;;;;;;2.05;0.77;;;0.50;99.90;;;;;;4860733;29;20131;-70
2024/01/08 08:42:08;;;;;;;2.60;0.90;;;0.50;99.90;;;;;;4876691;29;20042;-71
2024/01/08 08:44:34;;;;;;;1.05;0.85;;;0.60;99.90;;;;;;4861266;29;20030;-71
2024/01/08 08:47:04;;;;;;;2.88;1.75;;;0.60;99.90;;;;;;4860423;29;20116;-70
2024/01/08 08:49:30;;;;;;;1.75;0.82;;;0.60;99.90;;;;;;4861954;29;20398;-70
2024/01/08 08:51:56;;;;;;;1.05;0.65;;;0.60;99.90;;;;;;4861256;29;20116;-70
2024/01/08 08:54:23;;;;;;;1.20;0.70;;;0.60;99.90;;;;;;4861741;29;20079;-71
2024/01/08 08:56:48;;;;;;;3.25;1.00;;;0.60;99.90;;;;;;4860841;29;20090;-71
2024/01/08 08:59:14;;;;;;;1.23;0.85;;;0.60;99.90;;;;;;4862086;29;20042;-72
2024/01/08 09:01:40;;;;;;;3.38;2.00;;;0.70;99.90;;;;;;4860645;29;20085;-75
2024/01/08 09:04:06;;;;;;;1.02;0.82;;;0.70;99.90;;;;;;4863704;29;20044;-73
2024/01/08 09:06:34;;;;;;;1.20;0.95;;;0.70;99.90;;;;;;4860070;29;20037;-74
2024/01/08 09:09:01;;;;;;;1.17;1.05;;;0.50;99.90;;;;;;4862900;29;20025;-74
2024/01/08 09:11:27;;;;;;;1.77;0.80;;;0.40;99.90;;;;;;4858394;29;20068;-74
2024/01/08 09:13:53;;;;;;;2.45;0.98;;;0.70;99.90;;;;;;4884081;29;20698;-73
2024/01/08 09:16:19;;;;;;;4.28;1.40;;;0.90;99.90;;;;;;4860903;29;20376;-76
2024/01/08 09:18:48;;;;;;;1.60;0.98;;;1.00;99.90;;;;;;4845635;29;20044;-73
2024/01/08 09:21:14;;;;;;;2.30;1.20;;;1.10;99.90;;;;;;4854516;29;20033;-72
2024/01/08 09:23:41;;;;;;;3.50;1.75;;;1.20;99.90;;;;;;4861246;29;20040;-73
2024/01/08 09:26:07;;;;;;;3.30;1.50;;;1.30;99.90;;;;;;4869170;29;20033;-75
2024/01/08 09:28:33;;;;;;;2.50;1.17;;;1.30;99.90;;;;;;4874864;29;20419;-74
2024/01/08 09:31:03;;;;;;;4.28;1.58;;;1.30;99.90;;;;;;4860563;29;20459;-73
2024/01/08 09:33:28;;;;;;;1.25;1.02;;;0.90;99.90;;;;;;4874858;29;20053;-73
2024/01/08 09:35:55;;;;;;;2.28;0.88;;;1.20;99.90;;;;;;4874586;29;20033;-74
2024/01/08 09:38:20;;;;;;;3.90;1.30;;;1.30;99.90;;;;;;4881898;29;20025;-73
2024/01/08 09:40:49;;;;;;;1.35;0.82;;;1.40;99.90;;;;;;4857936;29;20101;-74
2024/01/08 09:43:15;;;;;;;1.48;0.77;;;1.50;99.90;;;;;;4863594;29;20036;-74
2024/01/08 09:45:57;;;;;;;2.53;0.90;;;1.60;99.70;;;;;;4858783;29;20049;-75
2024/01/08 09:48:24;;;;;;;0.75;0.73;;;1.30;98.20;;;;;;4867600;29;20044;-74
2024/01/08 09:50:51;;;;;;;1.58;0.95;;;1.30;98.70;;;;;;4855282;29;20121;-74
2024/01/08 09:53:17;;;;;;;0.70;0.57;;;1.30;97.30;;;;;;4871031;29;20386;-75
2024/01/08 09:55:44;;;;;;;1.17;0.47;;;1.60;99.70;;;;;;4857147;29;20044;-71
2024/01/08 09:58:10;;;;;;;6.22;1.30;;;1.50;97.20;;;;;;4871316;29;20037;-72
2024/01/08 10:00:36;;;;;;;1.58;0.90;;;1.30;96.60;;;;;;4860247;29;20030;-71
2024/01/08 10:03:02;;;;;;;2.10;1.30;;;1.20;96.30;;;;;;4878135;29;20073;-71
2024/01/08 10:05:28;;;;;;;1.52;0.88;;;1.10;96.90;;;;;;4875524;29;20439;-71
2024/01/08 10:07:54;;;;;;;2.17;1.02;;;0.90;96.60;;;;;;4876504;29;20036;-71
2024/01/08 10:10:22;;;;;;;1.85;0.88;;;0.90;96.40;;;;;;4877017;29;20550;-71
2024/01/08 10:12:51;;;;;;;4.03;1.77;;;0.60;96.80;;;;;;4868784;29;20037;-71
2024/01/08 10:15:18;;;;;;;1.50;1.15;;;0.60;95.90;;;;;;4877379;29;20068;-71
2024/01/08 10:17:50;;;;;;;1.30;0.80;;;0.70;95.90;;;;;;4861007;29;20029;-71
2024/01/08 10:20:17;;;;;;;0.52;0.50;;;0.60;95.40;;;;;;4877244;29;20470;-67
2024/01/08 10:22:45;;;;;;;2.00;1.02;;;0.50;95.60;;;;;;4859554;29;20061;-66
2024/01/08 10:25:11;;;;;;;1.17;0.73;;;0.50;94.80;;;;;;4877578;29;20033;-67
2024/01/08 10:27:38;;;;;;;1.67;0.98;;;0.50;94.60;;;;;;4852677;29;20513;-67
2024/01/08 10:30:05;;;;;;;0.80;0.75;;;0.40;93.50;;;;;;4862997;29;20037;-68
2024/01/08 10:32:30;;;;;;;4.38;0.75;;;0.30;93.30;;;;;;4872842;29;20041;-68
2024/01/08 10:34:56;;;;;;;3.38;1.30;;;0.20;93.10;;;;;;4864111;29;20025;-67
2024/01/08 10:37:22;;;;;;;2.85;0.77;;;0.20;93.40;;;;;;4851534;29;20094;-67
2024/01/08 10:39:51;;;;;;;1.33;0.80;;;0.20;93.50;;;;;;4863828;29;20051;-67
2024/01/08 10:42:17;;;;;;;1.42;1.00;;;0.40;92.70;;;;;;4857606;29;20076;-66
2024/01/08 10:44:44;;;;;;;2.97;0.70;;;0.30;92.30;;;;;;4863583;29;20081;-67
2024/01/08 10:47:17;;;;;;;1.15;0.70;;;0.50;92.10;;;;;;4860929;29;20030;-67
2024/01/08 10:49:52;;;;;;;1.88;1.00;;;0.60;92.30;;;;;;4872284;29;20655;-66
2024/01/08 10:52:27;;;;;;;2.40;1.20;;;0.70;92.00;;;;;;4856112;29;20041;-65
2024/01/08 10:54:59;;;;;;;2.78;1.05;;;1.30;90.90;;;;;;4857649;29;20037;-65
2024/01/08 10:57:50;;;;;;;3.22;0.98;;;2.10;88.40;;;;;;4866761;29;20125;-67
2024/01/08 11:00:16;;;;;;;9.77;2.30;;;3.70;83.10;;;;;;4857851;29;20029;-68
2024/01/08 11:02:44;;;;;;;2.60;1.17;;;6.50;70.90;;;;;;4850147;29;20379;-68
2024/01/08 11:05:10;;;;;;;2.10;1.20;;;6.30;67.70;;;;;;4854764;29;20037;-67
2024/01/08 11:07:40;;;;;;;1.90;1.02;;;4.90;68.60;;;;;;4868133;29;20531;-67
2024/01/08 11:10:09;;;;;;;1.80;1.52;;;3.80;71.30;;;;;;4862222;29;20040;-67
2024/01/08 11:12:50;;;;;;;2.08;1.13;;;3.70;72.30;;;;;;4858979;29;20041;-64
2024/01/08 11:15:17;;;;;;;3.08;0.98;;;3.30;72.80;;;;;;4866847;29;20137;-64
2024/01/08 11:17:58;;;;;;;3.60;1.92;;;2.10;75.60;;;;;;4847623;29;20040;-66
2024/01/08 11:20:45;;;;;;;0.82;0.55;;;2.90;76.90;;;;;;4858054;29;20030;-66
2024/01/08 11:23:43;;;;;;;1.83;1.40;;;2.60;75.10;;;;;;4871191;29;20411;-66
2024/01/08 11:26:21;;;;;;;2.97;1.35;;;3.10;75.20;;;;;;4871888;29;20040;-66
2024/01/08 11:29:04;;;;;;;2.35;1.10;;;3.40;74.50;;;;;;4862500;29;20030;-66
2024/01/08 11:32:09;;;;;;;1.45;1.00;;;3.20;73.80;;;;;;4860576;29;20033;-66
2024/01/08 11:34:57;;;;;;;2.53;1.17;;;2.90;75.10;;;;;;4851694;29;20102;-65
2024/01/08 11:37:42;;;;;;;1.05;0.90;;;2.80;76.00;;;;;;4869434;29;20045;-66
2024/01/08 11:40:15;;;;;;;1.80;1.17;;;3.70;75.70;;;;;;4859643;29;20037;-65
2024/01/08 11:42:46;;;;;;;2.20;1.23;;;4.10;74.00;;;;;;4876058;29;20514;-66
2024/01/08 11:45:12;;;;;;;1.75;1.27;;;3.30;76.00;;;;;;4880638;29;20493;-65
2024/01/08 11:47:38;;;;;;;1.45;0.70;;;3.20;76.60;;;;;;4860640;29;20391;-66
2024/01/08 11:50:08;;;;;;;4.32;1.20;;;3.70;76.40;;;;;;4877544;29;20026;-66
2024/01/08 11:52:37;;;;;;;2.70;1.50;;;3.50;78.70;;;;;;4859493;29;20038;-66
2024/01/08 11:55:05;;;;;;;4.63;1.27;;;3.40;76.50;;;;;;4875121;29;20045;-66
2024/01/08 11:57:31;;;;;;;2.05;1.05;;;4.80;76.40;;;;;;4860968;29;20363;-66
2024/01/08 11:59:57;;;;;;;7.30;1.35;;;6.40;71.80;;;;;;4864385;29;20482;-66
2024/01/08 12:02:27;;;;;;;3.03;1.40;;;7.40;67.50;;;;;;4859621;29;20120;-66
2024/01/08 12:05:00;;;;;;;4.65;1.40;;;7.50;62.70;;;;;;4861658;29;20049;-66
2024/01/08 12:07:29;;;;;;;2.13;0.95;;;6.00;67.50;;;;;;4861046;29;20109;-66
2024/01/08 12:09:59;;;;;;;3.13;1.15;;;5.30;72.30;;;;;;4862718;29;20032;-66
2024/01/08 12:12:25;;;;;;;1.45;0.90;;;5.40;69.00;;;;;;4858833;29;20093;-66
2024/01/08 12:14:53;;;;;;;5.32;1.55;;;4.70;69.60;;;;;;4862205;29;20026;-66
2024/01/08 12:17:19;;;;;;;2.50;1.30;;;4.50;71.60;;;;;;4872678;29;20542;-66
2024/01/08 12:19:52;;;;;;;3.20;1.35;;;4.80;70.10;;;;;;4876088;29;20113;-67
2024/01/08 12:22:18;;;;;;;2.42;1.58;;;4.90;68.30;;;;;;4856716;29;20038;-66
2024/01/08 12:24:48;;;;;;;4.32;1.40;;;5.50;67.60;;;;;;4860934;29;20025;-66
2024/01/08 12:27:19;;;;;;;4.53;1.85;;;7.70;66.90;;;;;;4858551;29;20029;-66
2024/01/08 12:29:46;;;;;;;;;;;6.70;63.10;;;;;;4864713;29;20030;-67
2024/01/08 12:32:20;;;;;;;3.63;1.48;;;5.70;68.40;;;;;;4855370;29;20357;-65
2024/01/08 12:34:46;;;;;;;3.55;1.90;;;4.80;69.30;;;;;;4882273;29;20045;-66
2024/01/08 12:37:19;;;;;;;4.30;2.00;;;5.20;70.30;;;;;;4859796;29;20041;-65
2024/01/08 12:39:46;;;;;;;5.68;1.90;;;7.90;67.60;;;;;;4877953;29;20034;-66
2024/01/08 12:42:17;;;;;;;3.20;1.45;;;7.10;64.50;;;;;;4853497;29;20471;-65
2024/01/08 12:44:45;;;;;;;2.40;1.48;;;5.60;64.30;;;;;;4863498;29;20045;-66
2024/01/08 12:47:12;;;;;;;3.40;1.42;;;4.20;68.20;;;;;;4859145;29;20048;-65
2024/01/08 12:49:38;;;;;;;4.15;1.65;;;3.90;70.50;;;;;;4862043;29;20037;-65
2024/01/08 12:52:04;;;;;;;3.53;1.67;;;3.70;72.90;;;;;;4859049;29;20029;-65
2024/01/08 12:54:31;;;;;;;5.03;1.35;;;3.50;75.10;;;;;;4866531;29;20033;-65
2024/01/08 12:56:58;;;;;;;4.18;1.95;;;4.30;70.80;;;;;;4870848;29;20038;-65
2024/01/08 12:59:28;;;;;;;3.03;1.60;;;3.70;71.80;;;;;;4871038;29;20025;-66